MONTICARGO VIRTUAL AIRLINES



 METAR AND TAF INFORMATION
METAR FOR MDPC
ADDS - METARS form results

(1109 UTC 28 January 2023)
Data provider http://aviationweather.gov/metar/data/
 
METAR text: MDPC 281100Z 03012KT 9999 SCT018 BKN070 24/20 Q1018
Conditions at: MDPC (PUNTA CANA , DO) observed 1100 UTC 28 January 2023
Temperature: 24.0°C (75°F)
Dewpoint: 20.0°C (68°F) [RH = 78%]
Pressure (altimeter): 30.06 inches Hg (1018.0 mb)
Winds: from the NNE (30 degrees) at 14 MPH (12 knots; 6.2 m/s)
Visibility: 6 or more miles (10+ km)
Ceiling: 7000 feet AGL
Clouds: scattered clouds at 1800 feet AGL
broken clouds at 7000 feet AGL
Weather: no significant weather observed at this time

Forecast for: MDPC (PUNTA CANA , DO)
Text: TAF MDPC 281000Z 2812/2912 04015KT 9999 SCT020
Forecast period: 1200 UTC 28 January 2023 to 1200 UTC 29 January 2023
Forecast type: FROM: standard forecast or significant change
Winds: from the NE (40 degrees) at 17 MPH (15 knots; 7.7 m/s)
Visibility: 6 or more miles (10+ km)
Ceiling: at least 12,000 feet AGL
Clouds: scattered clouds at 2000 feet AGL
Weather: no significant weather forecast for this period
Text: PROB30 2813/2818 8000 SH BKN018 SCT070
Forecast period: 1300 to 1800 UTC 28 January 2023
Forecast type: PROBABLE: 30 percent likelihood of the following during this time
Visibility: 5 miles (8 km)
Ceiling: 1800 feet AGL
Clouds: broken clouds at 1800 feet AGL
scattered clouds at 7000 feet AGL
Weather: SH  (showers)

 AIRPORT MAP

 RUNWAY INFORMATION